PWSweather.com
Personal Weather Stations
Station Observations
SBERGENWX
Wood Ridge, NJ 07075

Wood Ridge, NJ 07075

Lat: 40.851667, Lon: -74.088131

Elevation: 177

Station Type: Davis Vantage Vue

http://201weather.com/

High Low Average
Temperature 37.3°F2.9°C 11.5°F-11.4°C 28.1°F-2.2°C
Dew Point 36.3°F2.4°C 1.3°F-17.1°C 23.8°F-4.6°C
Winds 6.9 mph 11.1 kmh Calm Calm 2.0 mph SW3.2 kmh SW
Wind Gusts 19.6 mph31.5 kmh -- 6.0 mph9.7 kmh
Humidity 96% 63% 84%
Pressure 29.83 in1010.2 mb 29.23 in989.8 mb -
Precipitation 1.32 in33.5 mm - -
Hour Temp Dew Point Humidity Winds Wind Gusts Pressure Precip Precip Rate Daily Precip Total
12:00 AM 32.4°F0.2°C 31.1°F-0.5°C 95% 3.5 mph E5.6 kmh E 5.8 mph9.3 kmh 29.87 in1011.5 mb - 0.00 in0.0 mm 0.00 in0.0 mm
12:15 AM 32.5°F0.3°C 31.2°F-0.4°C 95% 1.2 mph E1.9 kmh E 4.6 mph7.4 kmh 29.87 in1011.5 mb - 0.04 in1.0 mm 0.04 in1.0 mm
12:30 AM 32.6°F0.3°C 31.3°F-0.4°C 95% Calm Calm 3.5 mph5.6 kmh 29.85 in1010.8 mb - 0.09 in2.3 mm 0.09 in2.3 mm
12:45 AM 32.8°F0.4°C 31.5°F-0.3°C 95% 1.2 mph SE1.9 kmh SE 5.8 mph9.3 kmh 29.84 in1010.5 mb - 0.15 in3.8 mm 0.15 in3.8 mm
01:00 AM 33.0°F0.6°C 31.7°F-0.2°C 95% 2.3 mph E3.7 kmh E 3.5 mph5.6 kmh 29.83 in1010.2 mb - 0.21 in5.3 mm 0.49 in12.4 mm
01:15 AM 33.2°F0.7°C 31.9°F-0.1°C 95% 1.2 mph E1.9 kmh E 3.5 mph5.6 kmh 29.82 in1009.8 mb - 0.25 in6.4 mm 0.08 in2.0 mm
01:30 AM 32.8°F0.4°C 31.3°F-0.4°C 94% 1.2 mph E1.9 kmh E 3.5 mph5.6 kmh 29.80 in1009.1 mb - 0.30 in7.6 mm 0.17 in4.3 mm
01:45 AM 32.5°F0.3°C 31.0°F-0.6°C 94% 4.6 mph E7.4 kmh E 8.1 mph13.0 kmh 29.76 in1007.8 mb - 0.31 in7.9 mm 0.24 in6.1 mm
02:00 AM 32.6°F0.3°C 31.3°F-0.4°C 95% 1.2 mph E1.9 kmh E 3.5 mph5.6 kmh 29.76 in1007.8 mb - 0.28 in7.1 mm 0.28 in7.1 mm
02:15 AM 32.9°F0.5°C 31.6°F-0.2°C 95% 3.5 mph E5.6 kmh E 6.9 mph11.1 kmh 29.76 in1007.8 mb - 0.26 in6.6 mm 0.33 in8.4 mm
02:30 AM 33.1°F0.6°C 31.8°F-0.1°C 95% 1.2 mph E1.9 kmh E 6.9 mph11.1 kmh 29.75 in1007.5 mb - 0.25 in6.4 mm 0.41 in10.4 mm
02:45 AM 33.0°F0.6°C 31.7°F-0.2°C 95% 1.2 mph NE1.9 kmh NE 2.3 mph3.7 kmh 29.75 in1007.5 mb - 0.24 in6.1 mm 0.48 in12.2 mm
03:00 AM 33.0°F0.6°C 31.7°F-0.2°C 95% 2.3 mph NW3.7 kmh NW 3.5 mph5.6 kmh 29.75 in1007.5 mb - 0.26 in6.6 mm 0.54 in13.7 mm
03:15 AM 32.9°F0.5°C 31.6°F-0.2°C 95% 1.2 mph WNW1.9 kmh WNW 1.2 mph1.9 kmh 29.75 in1007.5 mb - 0.25 in6.4 mm 0.58 in14.7 mm
03:30 AM 32.8°F0.4°C 31.5°F-0.3°C 95% Calm Calm 1.2 mph1.9 kmh 29.73 in1006.8 mb - 0.22 in5.6 mm 0.63 in16.0 mm
03:45 AM 32.9°F0.5°C 31.6°F-0.2°C 95% 1.2 mph NE1.9 kmh NE 3.5 mph5.6 kmh 29.70 in1005.8 mb - 0.20 in5.1 mm 0.67 in17.0 mm
04:00 AM 32.9°F0.5°C 31.6°F-0.2°C 95% 3.5 mph NE5.6 kmh NE 6.9 mph11.1 kmh 29.65 in1004.1 mb - 0.16 in4.1 mm 0.69 in17.5 mm
04:15 AM 33.0°F0.6°C 31.8°F-0.1°C 95% 1.2 mph E1.9 kmh E 4.6 mph7.4 kmh 29.64 in1003.7 mb - 0.13 in3.3 mm 0.70 in17.8 mm
04:30 AM 33.3°F0.7°C 32.1°F0.1°C 95% 4.6 mph NE7.4 kmh NE 6.9 mph11.1 kmh 29.63 in1003.4 mb - 0.15 in3.8 mm 0.77 in19.6 mm
04:45 AM 33.7°F0.9°C 32.4°F0.2°C 95% Calm Calm 2.3 mph3.7 kmh 29.63 in1003.4 mb - 0.18 in4.6 mm 0.84 in21.3 mm
05:00 AM 33.8°F1.0°C 32.5°F0.3°C 95% 1.2 mph NNE1.9 kmh NNE 4.6 mph7.4 kmh 29.61 in1002.7 mb - 0.18 in4.6 mm 0.87 in22.1 mm
05:15 AM 33.9°F1.1°C 32.6°F0.3°C 95% 2.3 mph NE3.7 kmh NE 3.5 mph5.6 kmh 29.58 in1001.7 mb - 0.21 in5.3 mm 0.91 in23.1 mm
05:30 AM 34.0°F1.1°C 32.7°F0.4°C 95% 3.5 mph NE5.6 kmh NE 3.5 mph5.6 kmh 29.55 in1000.7 mb - 0.16 in4.1 mm 0.93 in23.6 mm
05:45 AM 34.1°F1.2°C 32.8°F0.4°C 95% 1.2 mph ENE1.9 kmh ENE 4.6 mph7.4 kmh 29.54 in1000.3 mb - 0.11 in2.8 mm 0.95 in24.1 mm
06:00 AM 34.2°F1.2°C 33.0°F0.6°C 95% 1.2 mph NE1.9 kmh NE 5.8 mph9.3 kmh 29.53 in1000.0 mb - 0.11 in2.8 mm 0.98 in24.9 mm
06:15 AM 34.4°F1.3°C 33.4°F0.8°C 96% 1.2 mph E1.9 kmh E 2.3 mph3.7 kmh 29.52 in999.7 mb - 0.11 in2.8 mm 1.01 in25.7 mm
06:30 AM 34.7°F1.5°C 33.7°F0.9°C 96% 2.3 mph E3.7 kmh E 6.9 mph11.1 kmh 29.49 in998.6 mb - 0.10 in2.5 mm 1.03 in26.2 mm
06:45 AM 34.8°F1.6°C 33.5°F0.8°C 95% 2.3 mph E3.7 kmh E 3.5 mph5.6 kmh 29.48 in998.3 mb - 0.10 in2.5 mm 1.05 in26.7 mm
07:00 AM 34.9°F1.6°C 33.6°F0.9°C 95% 1.2 mph E1.9 kmh E 6.9 mph11.1 kmh 29.48 in998.3 mb - 0.08 in2.0 mm 1.06 in26.9 mm
07:15 AM 34.9°F1.6°C 33.6°F0.9°C 95% 1.2 mph ENE1.9 kmh ENE 5.8 mph9.3 kmh 29.46 in997.6 mb - 0.07 in1.8 mm 1.08 in27.4 mm
07:30 AM 35.0°F1.7°C 33.7°F0.9°C 95% Calm Calm 2.3 mph3.7 kmh 29.45 in997.3 mb - 0.06 in1.5 mm 1.09 in27.7 mm
07:45 AM 35.0°F1.7°C 33.7°F0.9°C 95% 3.5 mph E5.6 kmh E 9.2 mph14.8 kmh 29.41 in995.9 mb - 0.05 in1.3 mm 1.10 in27.9 mm
08:00 AM 34.9°F1.6°C 33.6°F0.9°C 95% 1.2 mph E1.9 kmh E 3.5 mph5.6 kmh 29.41 in995.9 mb - 0.06 in1.5 mm 1.12 in28.4 mm
08:15 AM 34.9°F1.6°C 33.6°F0.9°C 95% 2.3 mph E3.7 kmh E 5.8 mph9.3 kmh 29.38 in994.9 mb - 0.06 in1.5 mm 1.13 in28.7 mm
08:30 AM 35.2°F1.8°C 34.2°F1.2°C 96% 2.3 mph NE3.7 kmh NE 3.5 mph5.6 kmh 29.37 in994.6 mb - 0.04 in1.0 mm 1.13 in28.7 mm
08:45 AM 35.3°F1.8°C 34.0°F1.1°C 95% 1.2 mph NE1.9 kmh NE 2.3 mph3.7 kmh 29.36 in994.2 mb - 0.04 in1.0 mm 1.14 in29.0 mm
09:00 AM 35.5°F1.9°C 34.5°F1.4°C 96% 1.2 mph NE1.9 kmh NE 5.8 mph9.3 kmh 29.37 in994.6 mb - 0.02 in0.5 mm 1.14 in29.0 mm
09:15 AM 35.7°F2.1°C 34.7°F1.5°C 96% 1.2 mph NNE1.9 kmh NNE 6.9 mph11.1 kmh 29.38 in994.9 mb - 0.05 in1.3 mm 1.17 in29.7 mm
09:30 AM 35.7°F2.1°C 34.7°F1.5°C 96% 1.2 mph NE1.9 kmh NE 2.3 mph3.7 kmh 29.36 in994.2 mb - 0.06 in1.5 mm 1.19 in30.2 mm
09:45 AM 35.6°F2.0°C 34.6°F1.4°C 96% 3.5 mph E5.6 kmh E 5.8 mph9.3 kmh 29.30 in992.2 mb - 0.07 in1.8 mm 1.21 in30.7 mm
10:00 AM 35.5°F1.9°C 34.5°F1.4°C 96% 1.2 mph E1.9 kmh E 3.5 mph5.6 kmh 29.30 in992.2 mb - 0.08 in2.0 mm 1.22 in31.0 mm
10:15 AM 35.9°F2.2°C 34.9°F1.6°C 96% Calm Calm 1.2 mph1.9 kmh 29.30 in992.2 mb - 0.05 in1.3 mm 1.22 in31.0 mm
10:30 AM 36.2°F2.3°C 35.2°F1.8°C 96% Calm Calm 2.3 mph3.7 kmh 29.28 in991.5 mb - 0.04 in1.0 mm 1.23 in31.2 mm
10:45 AM 36.5°F2.5°C 35.5°F1.9°C 96% Calm Calm 1.2 mph1.9 kmh 29.25 in990.5 mb - 0.02 in0.5 mm 1.23 in31.2 mm
11:00 AM 36.9°F2.7°C 35.9°F2.2°C 96% 1.2 mph ENE1.9 kmh ENE 2.3 mph3.7 kmh 29.25 in990.5 mb - 0.01 in0.3 mm 1.23 in31.2 mm
11:15 AM 37.2°F2.9°C 36.2°F2.3°C 96% Calm Calm 1.2 mph1.9 kmh 29.23 in989.8 mb - 0.02 in0.5 mm 1.24 in31.5 mm
11:30 AM 37.3°F2.9°C 36.3°F2.4°C 96% Calm Calm -- 29.23 in989.8 mb - 0.01 in0.3 mm 1.24 in31.5 mm
11:45 AM 37.0°F2.8°C 36.0°F2.2°C 96% 1.2 mph NW1.9 kmh NW 2.3 mph3.7 kmh 29.24 in990.2 mb - 0.03 in0.8 mm 1.26 in32.0 mm
12:00 PM 36.4°F2.4°C 35.3°F1.8°C 96% 1.2 mph WNW1.9 kmh WNW 3.5 mph5.6 kmh 29.27 in991.2 mb - 0.07 in1.8 mm 1.30 in33.0 mm
12:15 PM 36.0°F2.2°C 35.0°F1.7°C 96% 2.3 mph NNW3.7 kmh NNW 3.5 mph5.6 kmh 29.27 in991.2 mb - 0.07 in1.8 mm 1.31 in33.3 mm
12:30 PM 35.3°F1.8°C 34.0°F1.1°C 95% 1.2 mph NW1.9 kmh NW 3.5 mph5.6 kmh 29.27 in991.2 mb - 0.07 in1.8 mm 1.31 in33.3 mm
12:45 PM 34.8°F1.6°C 33.5°F0.8°C 95% 2.3 mph NW3.7 kmh NW 3.5 mph5.6 kmh 29.26 in990.9 mb - 0.06 in1.5 mm 1.31 in33.3 mm
01:00 PM 34.9°F1.6°C 33.9°F1.1°C 96% 1.2 mph NNW1.9 kmh NNW 4.6 mph7.4 kmh 29.27 in991.2 mb - 0.02 in0.5 mm 1.32 in33.5 mm
01:15 PM 35.2°F1.8°C 33.9°F1.1°C 95% 2.3 mph N3.7 kmh N 3.5 mph5.6 kmh 29.27 in991.2 mb - 0.01 in0.3 mm 1.32 in33.5 mm
01:30 PM 35.4°F1.9°C 33.9°F1.1°C 94% 2.3 mph 3.7 kmh 3.5 mph5.6 kmh 29.26 in990.9 mb - 0.01 in0.3 mm 1.32 in33.5 mm
01:45 PM 36.1°F2.3°C 34.5°F1.4°C 94% 3.5 mph NNW5.6 kmh NNW 4.6 mph7.4 kmh 29.27 in991.2 mb - 0.01 in0.3 mm 1.32 in33.5 mm
02:00 PM 36.9°F2.7°C 34.8°F1.6°C 92% 1.2 mph NNW1.9 kmh NNW 3.5 mph5.6 kmh 29.27 in991.2 mb - 0.00 in0.0 mm 1.32 in33.5 mm
02:15 PM 37.1°F2.8°C 34.2°F1.2°C 89% 2.3 mph NNW3.7 kmh NNW 5.8 mph9.3 kmh 29.28 in991.5 mb - 0.00 in0.0 mm 1.32 in33.5 mm
02:30 PM 36.4°F2.4°C 32.9°F0.5°C 87% 2.3 mph NW3.7 kmh NW 11.5 mph18.5 kmh 29.29 in991.9 mb - 0.00 in0.0 mm 1.32 in33.5 mm
02:45 PM 34.5°F1.4°C 29.9°F-1.2°C 83% 2.3 mph NW3.7 kmh NW 3.5 mph5.6 kmh 29.32 in992.9 mb - 0.00 in0.0 mm 1.32 in33.5 mm
03:00 PM 33.1°F0.6°C 27.6°F-2.4°C 80% 2.3 mph NW3.7 kmh NW 8.1 mph13.0 kmh 29.33 in993.2 mb - 0.00 in0.0 mm 1.32 in33.5 mm
03:15 PM 31.6°F-0.2°C 25.8°F-3.4°C 79% 3.5 mph NW5.6 kmh NW 11.5 mph18.5 kmh 29.34 in993.6 mb - 0.00 in0.0 mm 1.32 in33.5 mm
03:30 PM 30.6°F-0.8°C 24.5°F-4.2°C 78% 2.3 mph NW3.7 kmh NW 17.3 mph27.8 kmh 29.34 in993.6 mb - 0.00 in0.0 mm 1.32 in33.5 mm
03:45 PM 29.8°F-1.2°C 23.4°F-4.8°C 77% 2.3 mph NW3.7 kmh NW 10.4 mph16.7 kmh 29.37 in994.6 mb - 0.00 in0.0 mm 1.32 in33.5 mm
04:00 PM 29.1°F-1.6°C 22.8°F-5.1°C 77% 2.3 mph WNW3.7 kmh WNW 3.5 mph5.6 kmh 29.39 in995.3 mb - 0.00 in0.0 mm 1.32 in33.5 mm
04:15 PM 28.9°F-1.7°C 22.0°F-5.6°C 75% 1.2 mph NNW1.9 kmh NNW 3.5 mph5.6 kmh 29.40 in995.6 mb - 0.00 in0.0 mm 1.32 in33.5 mm
04:30 PM 29.1°F-1.6°C 21.5°F-5.8°C 73% 2.3 mph NW3.7 kmh NW 3.5 mph5.6 kmh 29.41 in995.9 mb - 0.00 in0.0 mm 1.32 in33.5 mm
04:45 PM 27.6°F-2.4°C 19.8°F-6.8°C 72% 2.3 mph NW3.7 kmh NW 3.5 mph5.6 kmh 29.42 in996.3 mb - 0.00 in0.0 mm 1.32 in33.5 mm
05:00 PM 26.4°F-3.1°C 17.9°F-7.8°C 70% 5.8 mph NW9.3 kmh NW 18.4 mph29.6 kmh 29.45 in997.3 mb - 0.00 in0.0 mm 1.32 in33.5 mm
05:15 PM 25.2°F-3.8°C 16.8°F-8.4°C 70% 2.3 mph N3.7 kmh N 5.8 mph9.3 kmh 29.47 in998.0 mb - 0.00 in0.0 mm 1.32 in33.5 mm
05:30 PM 24.4°F-4.2°C 16.0°F-8.9°C 70% 2.3 mph NW3.7 kmh NW 12.7 mph20.4 kmh 29.49 in998.6 mb - 0.00 in0.0 mm 1.32 in33.5 mm
05:45 PM 22.9°F-5.1°C 14.2°F-9.9°C 69% 3.5 mph NNW5.6 kmh NNW 6.9 mph11.1 kmh 29.50 in999.0 mb - 0.00 in0.0 mm 1.32 in33.5 mm
06:00 PM 21.8°F-5.7°C 13.6°F-10.2°C 70% 3.5 mph NW5.6 kmh NW 15.0 mph24.1 kmh 29.52 in999.7 mb - 0.00 in0.0 mm 1.32 in33.5 mm
06:15 PM 20.5°F-6.4°C 12.3°F-10.9°C 70% 3.5 mph WNW5.6 kmh WNW 6.9 mph11.1 kmh 29.53 in1000.0 mb - 0.00 in0.0 mm 1.32 in33.5 mm
06:30 PM 19.5°F-6.9°C 11.3°F-11.5°C 70% 4.6 mph NW7.4 kmh NW 11.5 mph18.5 kmh 29.54 in1000.3 mb - 0.00 in0.0 mm 1.32 in33.5 mm
06:45 PM 19.0°F-7.2°C 10.5°F-11.9°C 69% 2.3 mph NNW3.7 kmh NNW 4.6 mph7.4 kmh 29.55 in1000.7 mb - 0.00 in0.0 mm 1.32 in33.5 mm
07:00 PM 18.3°F-7.6°C 9.8°F-12.3°C 69% 3.5 mph NW5.6 kmh NW 8.1 mph13.0 kmh 29.55 in1000.7 mb - 0.00 in0.0 mm 1.32 in33.5 mm
07:15 PM 17.7°F-7.9°C 9.9°F-12.3°C 71% 1.2 mph NNW1.9 kmh NNW 8.1 mph13.0 kmh 29.57 in1001.4 mb - 0.00 in0.0 mm 1.32 in33.5 mm
07:30 PM 16.6°F-8.6°C 7.9°F-13.4°C 68% 5.8 mph NW9.3 kmh NW 19.6 mph31.5 kmh 29.59 in1002.0 mb - 0.00 in0.0 mm 1.32 in33.5 mm
07:45 PM 15.8°F-9.0°C 7.1°F-13.8°C 68% 2.3 mph NW3.7 kmh NW 11.5 mph18.5 kmh 29.60 in1002.4 mb - 0.00 in0.0 mm 1.32 in33.5 mm
08:00 PM 15.1°F-9.4°C 6.8°F-14.0°C 69% 1.2 mph NW1.9 kmh NW 3.5 mph5.6 kmh 29.62 in1003.0 mb - 0.00 in0.0 mm 1.32 in33.5 mm
08:15 PM 14.7°F-9.6°C 6.0°F-14.4°C 68% 2.3 mph NNW3.7 kmh NNW 3.5 mph5.6 kmh 29.63 in1003.4 mb - 0.00 in0.0 mm 1.32 in33.5 mm
08:30 PM 14.3°F-9.8°C 5.7°F-14.6°C 68% Calm Calm 1.2 mph1.9 kmh 29.64 in1003.7 mb - 0.00 in0.0 mm 1.32 in33.5 mm
08:45 PM 14.0°F-10.0°C 5.4°F-14.8°C 68% 2.3 mph NW3.7 kmh NW 4.6 mph7.4 kmh 29.65 in1004.1 mb - 0.00 in0.0 mm 1.32 in33.5 mm
09:00 PM 13.8°F-10.1°C 4.9°F-15.1°C 67% 3.5 mph NNW5.6 kmh NNW 8.1 mph13.0 kmh 29.66 in1004.4 mb - 0.00 in0.0 mm 1.32 in33.5 mm
09:15 PM 13.7°F-10.2°C 4.8°F-15.1°C 67% 1.2 mph WNW1.9 kmh WNW 3.5 mph5.6 kmh 29.67 in1004.7 mb - 0.00 in0.0 mm 1.32 in33.5 mm
09:30 PM 13.5°F-10.3°C 4.2°F-15.4°C 66% 1.2 mph NW1.9 kmh NW 4.6 mph7.4 kmh 29.68 in1005.1 mb - 0.00 in0.0 mm 1.32 in33.5 mm
09:45 PM 13.3°F-10.4°C 3.4°F-15.9°C 64% 5.8 mph NW9.3 kmh NW 13.8 mph22.2 kmh 29.68 in1005.1 mb - 0.00 in0.0 mm 1.32 in33.5 mm
10:00 PM 13.0°F-10.6°C 3.4°F-15.9°C 65% 3.5 mph NW5.6 kmh NW 9.2 mph14.8 kmh 29.68 in1005.1 mb - 0.00 in0.0 mm 1.32 in33.5 mm
10:15 PM 12.9°F-10.6°C 3.7°F-15.7°C 66% 2.3 mph NW3.7 kmh NW 16.1 mph25.9 kmh 29.69 in1005.4 mb - 0.00 in0.0 mm 1.32 in33.5 mm
10:30 PM 12.7°F-10.7°C 3.5°F-15.8°C 66% Calm Calm 3.5 mph5.6 kmh 29.71 in1006.1 mb - 0.00 in0.0 mm 1.32 in33.5 mm
10:45 PM 12.5°F-10.8°C 3.3°F-15.9°C 66% 4.6 mph NNW7.4 kmh NNW 17.3 mph27.8 kmh 29.70 in1005.8 mb - 0.00 in0.0 mm 1.32 in33.5 mm
11:00 PM 12.4°F-10.9°C 3.5°F-15.8°C 67% Calm Calm 1.2 mph1.9 kmh 29.71 in1006.1 mb - 0.00 in0.0 mm 1.32 in33.5 mm
11:15 PM 12.3°F-10.9°C 3.7°F-15.7°C 68% Calm Calm 3.5 mph5.6 kmh 29.72 in1006.4 mb - 0.00 in0.0 mm 1.32 in33.5 mm
11:30 PM 12.2°F-11.0°C 4.3°F-15.4°C 70% 2.3 mph NNW3.7 kmh NNW 3.5 mph5.6 kmh 29.73 in1006.8 mb - 0.00 in0.0 mm 1.32 in33.5 mm
11:45 PM 12.2°F-11.0°C 3.6°F-15.8°C 68% 1.2 mph NW1.9 kmh NW 11.5 mph18.5 kmh 29.74 in1007.1 mb - 0.00 in0.0 mm 1.32 in33.5 mm